Time;durP1;ratioP1;P1;durP2;ratioP2;P2;SDS_P1;SDS_P2;PMS_P1;PMS_P2;Temp;Humidity;BMP_temperature;BMP_pressure;BME280_temperature;BME280_humidity;BME280_pressure;Samples;Min_cycle;Max_cycle;Signal;HPM_P1;HPM_P2
2022/07/31 00:02:02;;;;;;;4.70;4.30;;;16.20;99.20;;;;;;5031071;28;20206;-90
2022/07/31 00:04:30;;;;;;;4.85;3.80;;;16.10;99.60;;;;;;5035396;28;20210;-90
2022/07/31 00:06:57;;;;;;;5.32;4.05;;;16.20;99.60;;;;;;5031320;28;20289;-90
2022/07/31 00:09:24;;;;;;;4.30;3.90;;;16.20;99.80;;;;;;5034171;28;20213;-90
2022/07/31 00:11:51;;;;;;;6.78;3.90;;;16.10;99.80;;;;;;5033273;28;20210;-90
2022/07/31 00:14:18;;;;;;;4.40;4.00;;;16.20;99.80;;;;;;5032827;28;20210;-90
2022/07/31 00:16:48;;;;;;;5.07;3.85;;;16.20;99.60;;;;;;5031447;28;20233;-90
2022/07/31 00:19:16;;;;;;;4.68;4.10;;;16.10;99.60;;;;;;5021947;28;20199;-90
2022/07/31 00:21:43;;;;;;;5.28;4.00;;;16.10;99.60;;;;;;5029053;28;20210;-90
2022/07/31 00:24:10;;;;;;;3.78;3.47;;;16.10;99.60;;;;;;5030144;28;20565;-89
2022/07/31 00:26:37;;;;;;;5.25;4.05;;;16.10;99.40;;;;;;5029452;28;20564;-90
2022/07/31 00:29:04;;;;;;;4.30;3.90;;;16.10;99.60;;;;;;5033876;28;20206;-90
2022/07/31 00:31:31;;;;;;;4.97;3.67;;;16.00;99.40;;;;;;5035766;28;20194;-90
2022/07/31 00:33:59;;;;;;;4.03;3.72;;;15.90;99.40;;;;;;5038169;28;20202;-90
2022/07/31 00:36:26;;;;;;;4.20;3.90;;;15.90;99.50;;;;;;5027525;28;20721;-90
2022/07/31 00:38:56;;;;;;;4.78;3.47;;;15.90;99.50;;;;;;5037251;28;20553;-90
2022/07/31 00:41:22;;;;;;;3.92;3.35;;;15.90;99.40;;;;;;5039610;28;20209;-90
2022/07/31 00:43:49;;;;;;;5.45;3.80;;;15.90;99.30;;;;;;5041076;28;20669;-89
2022/07/31 00:46:16;;;;;;;4.97;3.50;;;15.70;99.60;;;;;;5038874;28;20195;-90
2022/07/31 00:48:51;;;;;;;5.35;3.40;;;15.60;99.90;;;;;;5042861;28;20202;-90
2022/07/31 00:51:19;;;;;;;4.45;4.03;;;15.60;99.90;;;;;;5042597;28;20208;-89
2022/07/31 00:53:46;;;;;;;3.75;3.45;;;15.50;99.90;;;;;;5039306;28;20202;-89
2022/07/31 00:56:13;;;;;;;4.50;4.10;;;15.50;99.90;;;;;;5034053;28;20592;-90
2022/07/31 00:58:40;;;;;;;5.53;3.63;;;15.50;99.90;;;;;;5037475;28;20229;-88
2022/07/31 01:01:09;;;;;;;6.38;4.03;;;15.40;99.90;;;;;;5035229;28;20211;-89
2022/07/31 01:03:36;;;;;;;8.65;4.30;;;15.40;99.90;;;;;;5030000;28;20206;-89
2022/07/31 01:06:03;;;;;;;6.05;3.75;;;15.30;99.90;;;;;;5038981;28;20221;-89
2022/07/31 01:08:31;;;;;;;3.92;3.53;;;15.30;99.90;;;;;;5033099;28;20236;-89
2022/07/31 01:11:04;;;;;;;6.93;3.85;;;15.40;99.90;;;;;;5035001;28;20207;-88
2022/07/31 01:13:35;;;;;;;3.50;3.20;;;15.30;99.90;;;;;;5036181;28;20207;-89
2022/07/31 01:16:04;;;;;;;4.28;3.90;;;15.30;99.90;;;;;;5036472;28;20712;-90
2022/07/31 01:18:35;;;;;;;4.03;3.65;;;15.30;99.90;;;;;;5034610;28;20657;-90
2022/07/31 01:21:07;;;;;;;3.90;3.58;;;15.40;99.90;;;;;;5034609;28;20213;-90
2022/07/31 01:24:14;;;;;;;3.90;3.60;;;15.60;99.90;;;;;;5034074;28;20318;-90
2022/07/31 01:26:49;;;;;;;4.20;3.58;;;15.60;99.90;;;;;;4972720;28;20212;-90
2022/07/31 01:29:35;;;;;;;4.70;3.50;;;15.70;99.90;;;;;;5019755;28;20202;-89
2022/07/31 01:32:06;;;;;;;4.95;3.78;;;15.60;99.90;;;;;;5042512;28;20222;-90
2022/07/31 01:34:39;;;;;;;4.18;3.78;;;15.60;99.90;;;;;;5038154;28;20212;-89
2022/07/31 01:37:12;;;;;;;3.78;3.47;;;15.50;99.90;;;;;;5034521;28;20245;-90
2022/07/31 01:39:43;;;;;;;5.88;3.63;;;15.50;99.90;;;;;;5035495;28;20198;-90
2022/07/31 01:42:13;;;;;;;4.30;3.67;;;15.50;99.90;;;;;;5034471;28;20213;-90
2022/07/31 01:44:45;;;;;;;4.05;3.60;;;15.60;99.90;;;;;;5034430;28;20290;-90
2022/07/31 01:47:17;;;;;;;4.75;3.65;;;15.60;99.90;;;;;;5033225;28;20210;-90
2022/07/31 01:49:45;;;;;;;5.45;3.88;;;15.60;99.90;;;;;;5031959;28;20723;-89
2022/07/31 01:52:13;;;;;;;4.03;3.72;;;15.60;99.90;;;;;;5032645;28;20206;-90
2022/07/31 01:54:46;;;;;;;4.30;3.88;;;15.70;99.90;;;;;;5031818;28;20247;-90
2022/07/31 01:57:15;;;;;;;4.10;3.80;;;15.80;99.90;;;;;;5033611;28;20222;-90
2022/07/31 01:59:45;;;;;;;4.10;3.70;;;15.90;99.90;;;;;;5035193;28;20206;-90
2022/07/31 02:02:17;;;;;;;4.03;3.63;;;15.90;99.90;;;;;;5032822;28;20208;-90
2022/07/31 02:04:45;;;;;;;4.47;4.07;;;15.90;99.90;;;;;;5037227;28;20222;-90
2022/07/31 02:07:14;;;;;;;3.90;3.60;;;15.90;99.90;;;;;;5031362;28;20211;-90
2022/07/31 02:09:43;;;;;;;4.13;3.72;;;15.90;99.90;;;;;;5032295;28;20202;-90
2022/07/31 02:12:11;;;;;;;5.05;3.55;;;15.90;99.90;;;;;;5034548;28;20210;-90
2022/07/31 02:14:40;;;;;;;3.63;3.40;;;15.80;99.90;;;;;;5031705;28;20688;-90
2022/07/31 02:17:09;;;;;;;4.00;3.70;;;15.80;99.90;;;;;;5033261;28;20572;-90
2022/07/31 02:19:37;;;;;;;4.38;3.50;;;15.80;99.90;;;;;;5035876;28;20210;-90
2022/07/31 02:22:05;;;;;;;5.65;3.90;;;15.70;99.90;;;;;;5037519;28;20203;-90
2022/07/31 02:24:32;;;;;;;3.95;3.65;;;15.70;99.90;;;;;;5031359;28;20562;-90
2022/07/31 02:26:59;;;;;;;4.07;3.78;;;15.70;99.90;;;;;;5044274;28;20221;-90
2022/07/31 02:29:29;;;;;;;3.72;3.42;;;15.70;99.90;;;;;;5036368;28;20214;-90
2022/07/31 02:31:58;;;;;;;3.85;3.45;;;15.70;99.90;;;;;;5036180;28;20232;-90
2022/07/31 02:34:29;;;;;;;4.20;3.30;;;15.80;99.90;;;;;;5032101;28;20210;-90
2022/07/31 02:36:57;;;;;;;3.70;3.40;;;15.90;99.90;;;;;;5045376;28;20312;-89
2022/07/31 02:39:28;;;;;;;4.13;3.72;;;15.90;99.90;;;;;;5030512;28;20213;-90
2022/07/31 02:41:56;;;;;;;6.10;3.60;;;15.90;99.90;;;;;;5040795;28;20205;-90
2022/07/31 02:44:24;;;;;;;4.00;3.60;;;15.80;99.90;;;;;;5034404;28;20913;-90
2022/07/31 02:46:51;;;;;;;3.90;3.60;;;15.80;99.90;;;;;;5038506;28;20306;-89
2022/07/31 02:49:19;;;;;;;3.60;3.30;;;15.80;99.90;;;;;;5033065;28;20210;-90
2022/07/31 02:51:47;;;;;;;4.07;3.67;;;15.80;99.90;;;;;;5038808;28;20261;-89
2022/07/31 02:54:14;;;;;;;3.70;3.35;;;15.80;99.90;;;;;;5032868;28;20208;-90
2022/07/31 02:56:42;;;;;;;4.72;3.60;;;15.70;99.90;;;;;;5032224;28;20713;-90
2022/07/31 02:59:08;;;;;;;5.25;3.75;;;15.70;99.90;;;;;;5036706;28;20202;-90
2022/07/31 03:01:39;;;;;;;4.70;3.58;;;15.70;99.90;;;;;;5033795;28;20217;-90
2022/07/31 03:04:07;;;;;;;4.63;3.45;;;15.80;99.90;;;;;;5036375;28;20255;-90
2022/07/31 03:06:34;;;;;;;4.78;3.60;;;15.90;99.90;;;;;;5034386;28;20293;-90
2022/07/31 03:09:02;;;;;;;3.78;3.47;;;15.90;99.90;;;;;;5036424;28;20207;-90
2022/07/31 03:11:29;;;;;;;3.92;3.63;;;16.00;99.90;;;;;;5030203;28;20553;-89
2022/07/31 03:14:00;;;;;;;5.40;3.28;;;16.00;99.90;;;;;;5033514;28;20206;-90
2022/07/31 03:16:29;;;;;;;4.65;3.47;;;16.20;99.90;;;;;;5032504;28;20253;-90
2022/07/31 03:18:57;;;;;;;3.67;3.38;;;16.10;99.90;;;;;;5034669;28;20229;-90
2022/07/31 03:21:25;;;;;;;4.90;3.50;;;16.10;99.90;;;;;;5031810;28;20214;-90
2022/07/31 03:23:52;;;;;;;4.30;3.65;;;16.00;99.90;;;;;;5034215;28;20217;-89
2022/07/31 03:26:20;;;;;;;3.95;3.55;;;16.00;99.90;;;;;;5038835;28;20210;-90
2022/07/31 03:28:47;;;;;;;3.50;3.20;;;16.00;99.90;;;;;;5047476;28;20221;-90
2022/07/31 03:31:14;;;;;;;4.85;3.78;;;16.00;99.90;;;;;;5033503;28;20220;-90
2022/07/31 03:33:42;;;;;;;3.80;3.50;;;16.00;99.90;;;;;;5030691;28;20285;-91
2022/07/31 03:36:09;;;;;;;3.70;3.40;;;16.10;99.90;;;;;;5032416;28;20233;-90
2022/07/31 03:38:36;;;;;;;3.97;3.67;;;16.00;99.90;;;;;;5032713;28;20206;-90
2022/07/31 03:41:03;;;;;;;5.72;3.70;;;16.00;99.90;;;;;;5032510;28;20213;-87
2022/07/31 03:43:33;;;;;;;5.10;3.67;;;15.90;99.90;;;;;;5037254;28;20213;-87
2022/07/31 03:46:00;;;;;;;3.70;3.17;;;15.90;99.90;;;;;;5032354;28;20217;-86
2022/07/31 03:48:28;;;;;;;4.65;3.75;;;16.00;99.90;;;;;;5032723;28;20214;-87
2022/07/31 03:50:56;;;;;;;4.00;3.70;;;16.10;99.90;;;;;;5038120;28;20225;-90
2022/07/31 03:53:28;;;;;;;5.50;3.50;;;16.00;99.90;;;;;;5034302;28;20251;-88
2022/07/31 03:55:56;;;;;;;3.97;3.60;;;16.00;99.90;;;;;;5035300;28;20216;-92
2022/07/31 03:58:24;;;;;;;4.35;3.63;;;16.10;99.90;;;;;;5045089;28;20206;-92
2022/07/31 04:00:59;;;;;;;4.25;3.35;;;16.10;99.90;;;;;;5033769;28;20202;-91
2022/07/31 04:03:31;;;;;;;3.75;3.45;;;16.00;99.90;;;;;;5029523;28;20623;-90
2022/07/31 04:06:09;;;;;;;3.88;3.42;;;15.90;99.90;;;;;;5036811;28;20555;-92
2022/07/31 04:08:36;;;;;;;4.03;3.63;;;15.90;99.90;;;;;;5040585;28;20650;-90
2022/07/31 04:11:09;;;;;;;4.47;3.75;;;15.80;99.90;;;;;;5045464;28;20201;-89
2022/07/31 04:13:36;;;;;;;4.78;3.75;;;15.80;99.90;;;;;;5038862;28;20206;-92
2022/07/31 04:18:46;;;;;;;4.43;3.60;;;15.80;99.90;;;;;;5036056;28;20212;-90
2022/07/31 04:21:13;;;;;;;4.20;3.80;;;15.80;99.90;;;;;;5035546;28;20356;-91
2022/07/31 04:23:40;;;;;;;4.10;3.75;;;15.90;99.90;;;;;;5037399;28;20199;-91
2022/07/31 04:26:07;;;;;;;4.28;3.70;;;16.10;99.90;;;;;;5035133;28;20214;-91
2022/07/31 04:28:34;;;;;;;6.53;3.65;;;16.10;99.90;;;;;;5036140;28;20199;-92
2022/07/31 04:31:00;;;;;;;4.80;3.30;;;16.10;99.90;;;;;;5036540;28;20278;-92
2022/07/31 04:33:35;;;;;;;3.97;3.63;;;16.20;99.90;;;;;;5034842;28;20246;-92
2022/07/31 04:36:02;;;;;;;3.65;3.25;;;16.40;99.90;;;;;;5030474;28;20213;-92
2022/07/31 04:38:29;;;;;;;3.90;3.60;;;16.40;99.90;;;;;;5035600;28;20212;-92
2022/07/31 04:43:36;;;;;;;3.50;3.20;;;16.40;99.90;;;;;;5036493;28;20568;-92
2022/07/31 04:46:03;;;;;;;4.00;3.35;;;16.40;99.90;;;;;;5037141;28;20546;-92
2022/07/31 04:48:30;;;;;;;4.03;3.30;;;16.40;99.90;;;;;;5040056;28;20657;-92
2022/07/31 04:56:36;;;;;;;7.53;3.80;;;16.50;99.90;;;;;;4994786;28;20232;-91
2022/07/31 04:59:06;;;;;;;6.00;3.40;;;16.60;99.90;;;;;;4996235;28;20608;-92
2022/07/31 05:01:33;;;;;;;4.50;3.25;;;16.70;99.90;;;;;;4998500;28;20208;-92
2022/07/31 05:04:01;;;;;;;3.85;3.55;;;16.70;99.90;;;;;;4994965;28;20227;-92
2022/07/31 05:09:19;;;;;;;3.72;3.40;;;16.90;99.60;;;;;;4995205;28;20223;-93
2022/07/31 05:11:47;;;;;;;4.25;3.50;;;17.10;99.40;;;;;;4995675;28;20208;-92
2022/07/31 05:14:16;;;;;;;3.60;3.30;;;17.30;99.00;;;;;;4994525;28;20203;-92
2022/07/31 05:16:43;;;;;;;5.10;3.10;;;17.40;98.90;;;;;;4996539;28;20620;-92
2022/07/31 05:19:10;;;;;;;4.82;3.33;;;17.60;98.50;;;;;;4989951;28;20216;-93
2022/07/31 05:21:43;;;;;;;4.85;3.90;;;17.70;97.70;;;;;;5008344;28;20204;-92
2022/07/31 05:24:33;;;;;;;4.38;2.97;;;17.80;97.60;;;;;;4993031;28;20327;-92
2022/07/31 05:27:00;;;;;;;3.38;3.08;;;17.70;97.10;;;;;;4996961;28;20222;-92
2022/07/31 05:29:27;;;;;;;7.07;4.03;;;17.70;97.10;;;;;;4987901;28;20211;-93
2022/07/31 05:31:54;;;;;;;3.63;2.92;;;17.60;97.20;;;;;;4990739;28;20228;-92
2022/07/31 05:34:21;;;;;;;3.50;3.20;;;17.60;97.50;;;;;;4991432;28;20263;-92
2022/07/31 05:36:51;;;;;;;3.55;3.22;;;17.70;97.10;;;;;;4978873;28;20748;-92
2022/07/31 05:39:39;;;;;;;3.63;3.33;;;17.80;97.20;;;;;;4955984;28;20211;-92
2022/07/31 05:42:06;;;;;;;4.90;3.40;;;18.10;96.40;;;;;;4958903;28;20221;-92
2022/07/31 05:44:33;;;;;;;3.08;2.88;;;18.20;95.90;;;;;;4980443;28;20216;-92
2022/07/31 05:49:50;;;;;;;3.70;3.25;;;18.30;96.20;;;;;;4987585;28;20267;-93
2022/07/31 05:52:18;;;;;;;5.15;3.42;;;18.40;95.60;;;;;;4991886;28;20239;-92
2022/07/31 05:54:45;;;;;;;3.10;2.90;;;18.60;95.50;;;;;;4987871;28;20200;-92
2022/07/31 05:57:15;;;;;;;4.30;3.30;;;18.80;94.90;;;;;;5000764;28;20222;-90
2022/07/31 05:59:46;;;;;;;3.30;3.00;;;19.00;93.70;;;;;;5036529;28;20217;-91
2022/07/31 06:02:15;;;;;;;5.85;3.10;;;19.20;92.40;;;;;;5036289;28;20218;-91
2022/07/31 06:04:42;;;;;;;4.18;2.90;;;19.40;91.00;;;;;;5036441;28;20211;-91
2022/07/31 06:07:09;;;;;;;3.20;2.90;;;19.60;90.90;;;;;;5033104;28;20206;-91
2022/07/31 06:09:37;;;;;;;2.97;2.75;;;19.70;90.60;;;;;;5031459;28;20206;-91
2022/07/31 06:12:05;;;;;;;3.42;3.10;;;19.80;90.30;;;;;;5030200;28;20186;-91
2022/07/31 06:14:33;;;;;;;3.65;3.10;;;20.00;89.70;;;;;;5033741;28;20286;-91
2022/07/31 06:17:06;;;;;;;3.95;2.80;;;20.20;85.80;;;;;;5031602;28;20236;-91
2022/07/31 06:19:38;;;;;;;3.42;2.70;;;20.40;83.30;;;;;;5030889;28;20226;-91
2022/07/31 06:22:05;;;;;;;3.85;2.70;;;20.60;81.30;;;;;;5030486;28;20237;-90
2022/07/31 06:24:32;;;;;;;4.38;2.83;;;20.80;77.50;;;;;;5032491;28;20690;-91
2022/07/31 06:30:02;;;;;;;3.03;2.55;;;20.90;78.50;;;;;;5031294;28;20216;-91
2022/07/31 06:32:33;;;;;;;4.38;2.90;;;20.80;81.40;;;;;;5027529;28;20238;-90
2022/07/31 06:35:01;;;;;;;3.00;2.70;;;20.70;81.30;;;;;;5027693;28;20214;-90
2022/07/31 06:37:28;;;;;;;3.17;2.90;;;20.80;81.40;;;;;;5029659;28;20226;-90
2022/07/31 06:39:57;;;;;;;3.80;3.08;;;20.90;81.40;;;;;;5028492;28;20218;-89
2022/07/31 06:42:26;;;;;;;4.00;2.80;;;21.00;81.50;;;;;;5024706;28;20202;-90
2022/07/31 06:45:13;;;;;;;2.88;2.67;;;21.20;77.20;;;;;;5029081;28;20210;-91
2022/07/31 06:47:40;;;;;;;2.95;2.65;;;21.20;75.60;;;;;;5031076;28;20215;-93
2022/07/31 06:50:08;;;;;;;3.28;2.90;;;21.30;75.20;;;;;;5025320;28;20278;-91
2022/07/31 06:52:35;;;;;;;3.80;2.80;;;21.40;72.40;;;;;;5026417;28;20212;-91
2022/07/31 06:55:02;;;;;;;2.92;2.53;;;21.40;71.60;;;;;;5029868;28;20206;-90
2022/07/31 06:57:30;;;;;;;3.83;2.58;;;21.50;68.40;;;;;;5042983;28;20222;-90
2022/07/31 06:59:57;;;;;;;4.65;2.85;;;21.40;68.40;;;;;;5034212;28;20213;-91
2022/07/31 07:02:24;;;;;;;3.22;2.63;;;21.30;69.00;;;;;;5032459;28;20202;-91
2022/07/31 07:04:51;;;;;;;3.58;2.50;;;21.30;68.60;;;;;;5029249;28;20560;-91
2022/07/31 07:14:03;;;;;;;2.53;2.33;;;21.40;67.80;;;;;;5036296;28;20259;-90
2022/07/31 07:16:30;;;;;;;5.43;2.75;;;21.30;70.60;;;;;;5029445;28;20210;-90
2022/07/31 07:18:57;;;;;;;3.28;2.53;;;21.40;71.00;;;;;;5028999;28;20226;-91
2022/07/31 07:21:25;;;;;;;2.90;2.67;;;21.50;69.30;;;;;;5028869;28;20288;-90
2022/07/31 07:23:52;;;;;;;5.55;3.10;;;21.50;70.30;;;;;;5028399;28;20207;-90
2022/07/31 07:26:18;;;;;;;3.55;2.70;;;21.40;70.80;;;;;;5029417;28;20552;-90
2022/07/31 07:28:46;;;;;;;3.38;2.42;;;21.50;71.20;;;;;;5030858;28;20218;-89
2022/07/31 07:31:17;;;;;;;3.50;2.58;;;21.70;73.90;;;;;;5032979;28;20305;-90
2022/07/31 07:33:44;;;;;;;5.35;2.60;;;21.70;69.90;;;;;;5033710;28;20554;-90
2022/07/31 07:36:11;;;;;;;5.05;2.78;;;21.70;72.40;;;;;;5029130;28;20248;-90
2022/07/31 07:38:38;;;;;;;4.32;2.67;;;21.70;73.00;;;;;;5042528;28;20218;-90
2022/07/31 07:41:04;;;;;;;4.25;2.50;;;21.90;66.60;;;;;;5039494;28;20202;-90
2022/07/31 07:43:31;;;;;;;2.92;2.63;;;22.20;61.00;;;;;;5027692;28;20673;-91
2022/07/31 07:45:58;;;;;;;3.03;2.53;;;22.30;59.40;;;;;;5032294;28;20207;-90
2022/07/31 07:48:27;;;;;;;2.65;2.45;;;22.50;56.10;;;;;;5036235;28;20233;-88
2022/07/31 07:50:53;;;;;;;3.85;2.60;;;22.40;58.00;;;;;;5031542;28;20525;-89
2022/07/31 07:53:20;;;;;;;5.47;2.70;;;22.50;52.50;;;;;;5035084;28;20205;-90
2022/07/31 07:55:47;;;;;;;3.70;2.70;;;22.50;54.50;;;;;;5039827;28;20206;-89
2022/07/31 07:58:14;;;;;;;3.45;2.80;;;22.50;55.40;;;;;;5046398;28;20236;-88
2022/07/31 08:00:41;;;;;;;3.13;2.53;;;22.60;52.80;;;;;;5034530;28;20203;-88
2022/07/31 08:03:08;;;;;;;2.72;2.53;;;22.70;52.30;;;;;;5034194;28;20199;-88
2022/07/31 08:05:36;;;;;;;2.50;2.30;;;22.80;51.60;;;;;;5038111;28;20198;-88
2022/07/31 08:08:03;;;;;;;3.10;2.50;;;22.90;51.80;;;;;;5042198;28;20212;-89
2022/07/31 08:10:30;;;;;;;4.13;2.38;;;23.00;52.40;;;;;;5038528;28;20214;-87
2022/07/31 08:12:57;;;;;;;2.90;2.65;;;23.40;47.60;;;;;;5040866;28;20669;-85
2022/07/31 08:15:24;;;;;;;4.38;2.42;;;23.60;45.20;;;;;;5036043;28;20199;-86
2022/07/31 08:17:51;;;;;;;2.85;2.40;;;23.50;45.10;;;;;;5034469;28;20233;-85
2022/07/31 08:20:18;;;;;;;4.43;2.33;;;23.60;43.20;;;;;;5026585;28;20217;-85
2022/07/31 08:22:46;;;;;;;2.60;2.40;;;23.70;39.10;;;;;;5027384;28;20209;-85
2022/07/31 08:25:13;;;;;;;3.67;2.40;;;24.00;38.40;;;;;;5033744;28;20206;-86
2022/07/31 08:27:40;;;;;;;5.35;2.53;;;24.40;33.80;;;;;;5031949;28;20237;-86
2022/07/31 08:30:08;;;;;;;3.10;2.65;;;24.40;35.00;;;;;;5033300;28;20215;-85
2022/07/31 08:32:35;;;;;;;4.47;2.58;;;24.50;33.30;;;;;;5033743;28;20285;-88
2022/07/31 08:35:02;;;;;;;3.70;2.67;;;24.30;32.20;;;;;;5029841;28;21802;-84
2022/07/31 08:37:34;;;;;;;3.20;2.47;;;24.50;34.70;;;;;;5034078;28;20234;-85
2022/07/31 08:40:02;;;;;;;6.25;2.65;;;25.10;27.20;;;;;;5031710;28;20669;-85
2022/07/31 08:42:29;;;;;;;2.40;2.20;;;24.90;29.60;;;;;;5028618;28;20198;-86
2022/07/31 08:44:59;;;;;;;3.45;2.50;;;24.70;30.40;;;;;;5030565;28;20195;-86
2022/07/31 08:47:26;;;;;;;2.55;2.33;;;25.10;28.40;;;;;;5041189;28;20204;-86
2022/07/31 08:49:53;;;;;;;6.85;2.55;;;25.10;28.30;;;;;;5038915;28;20261;-86
2022/07/31 08:52:31;;;;;;;4.60;2.40;;;25.10;27.50;;;;;;5038698;28;20198;-86
2022/07/31 08:54:59;;;;;;;3.47;2.30;;;25.00;29.50;;;;;;5039932;28;20248;-86
2022/07/31 08:57:28;;;;;;;4.03;2.50;;;24.80;26.90;;;;;;5041917;28;20701;-86
2022/07/31 08:59:55;;;;;;;7.90;2.45;;;25.50;27.00;;;;;;5035789;28;20212;-86
2022/07/31 09:02:22;;;;;;;2.53;2.33;;;27.20;22.90;;;;;;5034009;28;20214;-86
2022/07/31 09:04:50;;;;;;;2.40;2.20;;;28.70;19.10;;;;;;5036419;28;20190;-86
2022/07/31 09:07:17;;;;;;;2.53;2.33;;;30.50;16.90;;;;;;5036447;28;20301;-86
2022/07/31 09:09:46;;;;;;;5.47;2.80;;;32.10;14.70;;;;;;5044915;28;20210;-87
2022/07/31 09:12:13;;;;;;;3.35;2.97;;;31.80;12.90;;;;;;5038362;28;20229;-87
2022/07/31 09:14:48;;;;;;;3.78;2.97;;;30.80;13.60;;;;;;5038550;28;20206;-88
2022/07/31 09:17:15;;;;;;;7.20;6.50;;;30.70;13.80;;;;;;5034682;28;20224;-87
2022/07/31 09:19:44;;;;;;;5.53;4.93;;;30.60;14.10;;;;;;5040016;28;20260;-88
2022/07/31 09:22:20;;;;;;;4.68;3.30;;;31.20;12.90;;;;;;5035146;28;20668;-88
2022/07/31 09:24:47;;;;;;;2.80;2.60;;;31.90;11.70;;;;;;5032475;28;20218;-87
2022/07/31 09:27:16;;;;;;;4.28;3.97;;;33.30;8.70;;;;;;5035735;28;20197;-87
2022/07/31 09:29:47;;;;;;;6.30;3.05;;;34.20;9.10;;;;;;5032241;28;20317;-88
2022/07/31 09:32:16;;;;;;;4.50;3.47;;;34.10;8.40;;;;;;5033653;28;20237;-88
2022/07/31 09:34:44;;;;;;;3.58;3.30;;;34.80;7.50;;;;;;5032374;28;20213;-89
2022/07/31 09:37:12;;;;;;;3.60;3.30;;;35.10;6.50;;;;;;5031540;28;20217;-88
2022/07/31 09:39:40;;;;;;;3.47;3.17;;;34.50;6.10;;;;;;5030110;28;20710;-89
2022/07/31 09:42:08;;;;;;;3.90;3.28;;;33.90;7.20;;;;;;5029052;28;20210;-88
2022/07/31 09:44:39;;;;;;;4.30;3.25;;;34.20;6.70;;;;;;5037548;28;20195;-88
2022/07/31 09:47:20;;;;;;;3.95;3.03;;;34.40;5.80;;;;;;5039636;28;20206;-88
2022/07/31 09:49:53;;;;;;;3.65;3.35;;;33.10;8.50;;;;;;5039659;28;20201;-88
2022/07/31 09:52:20;;;;;;;2.92;2.72;;;32.00;9.60;;;;;;5042181;28;20716;-88
2022/07/31 09:54:48;;;;;;;3.35;3.15;;;32.60;9.70;;;;;;5037247;28;20198;-88
2022/07/31 09:57:15;;;;;;;3.60;3.30;;;33.10;9.40;;;;;;5033959;28;20632;-87
2022/07/31 09:59:46;;;;;;;3.92;3.17;;;33.40;5.70;;;;;;5040750;28;20276;-88
2022/07/31 10:02:15;;;;;;;3.85;3.55;;;34.00;7.40;;;;;;5047829;28;20228;-88
2022/07/31 10:04:45;;;;;;;12.13;11.23;;;33.60;7.00;;;;;;5038171;28;20241;-88
2022/07/31 10:07:17;;;;;;;21.10;19.48;;;34.20;5.20;;;;;;5036347;28;20268;-88
2022/07/31 10:09:45;;;;;;;4.88;4.28;;;35.60;2.20;;;;;;5041358;28;20227;-88
2022/07/31 10:12:15;;;;;;;4.60;4.07;;;35.60;2.80;;;;;;5035681;28;20205;-88
2022/07/31 10:14:44;;;;;;;4.72;4.32;;;34.20;4.20;;;;;;5034959;28;20205;-86
2022/07/31 10:17:14;;;;;;;5.50;4.47;;;34.10;3.60;;;;;;5036961;28;20516;-88
2022/07/31 10:19:49;;;;;;;5.07;4.68;;;33.50;5.20;;;;;;5040759;28;20230;-88
2022/07/31 10:22:18;;;;;;;4.93;3.75;;;33.90;4.20;;;;;;5038525;28;20562;-89
2022/07/31 10:24:48;;;;;;;4.13;3.70;;;34.30;1.90;;;;;;5035417;28;20210;-89
2022/07/31 10:27:17;;;;;;;4.72;4.32;;;33.90;4.20;;;;;;5033806;28;20210;-89
2022/07/31 10:29:47;;;;;;;3.70;3.40;;;34.00;3.90;;;;;;5037461;28;20571;-88
2022/07/31 10:32:14;;;;;;;4.05;3.55;;;33.60;3.80;;;;;;5034022;28;20248;-88
2022/07/31 10:34:41;;;;;;;3.70;3.40;;;33.50;5.40;;;;;;5030590;28;20580;-91
2022/07/31 10:37:14;;;;;;;9.70;8.93;;;32.80;5.70;;;;;;5030986;28;20676;-90
2022/07/31 10:39:49;;;;;;;5.38;4.88;;;33.90;4.40;;;;;;5031134;28;20226;-90
2022/07/31 10:42:44;;;;;;;6.45;4.47;;;33.40;3.80;;;;;;5032870;28;20221;-91
2022/07/31 10:45:13;;;;;;;3.10;2.80;;;32.80;7.00;;;;;;5030882;28;20597;-91
2022/07/31 10:47:43;;;;;;;3.35;3.05;;;32.10;5.60;;;;;;5031909;28;20228;-91
2022/07/31 10:50:20;;;;;;;3.45;3.22;;;32.20;6.30;;;;;;5033933;28;21272;-90
2022/07/31 10:52:49;;;;;;;3.22;2.92;;;32.60;6.90;;;;;;5029075;28;20217;-90
2022/07/31 10:55:18;;;;;;;3.10;2.83;;;32.90;6.50;;;;;;5033441;28;20214;-90
2022/07/31 10:57:52;;;;;;;2.58;2.38;;;32.40;7.00;;;;;;5042439;28;20252;-90
2022/07/31 11:01:00;;;;;;;3.08;2.70;;;33.00;5.90;;;;;;5046402;28;20200;-89
2022/07/31 11:03:39;;;;;;;5.20;3.05;;;33.10;4.30;;;;;;5035429;28;20210;-89
2022/07/31 11:06:06;;;;;;;4.18;2.90;;;33.50;6.20;;;;;;5035555;28;20201;-87
2022/07/31 11:08:48;;;;;;;2.60;2.40;;;34.00;2.90;;;;;;5032117;28;20202;-88
2022/07/31 11:11:15;;;;;;;2.70;2.50;;;33.80;3.90;;;;;;5034964;28;20189;-87
2022/07/31 11:13:47;;;;;;;2.40;2.20;;;33.60;3.40;;;;;;5031450;28;20210;-89
2022/07/31 11:16:16;;;;;;;2.90;2.70;;;32.80;5.30;;;;;;5032447;28;20202;-88
2022/07/31 11:18:45;;;;;;;2.55;2.35;;;31.80;7.50;;;;;;5031560;28;20234;-88
2022/07/31 11:21:12;;;;;;;2.60;2.40;;;30.90;7.80;;;;;;5027998;28;20309;-87
2022/07/31 11:23:41;;;;;;;5.72;3.58;;;30.30;10.80;;;;;;5033216;28;20206;-88
2022/07/31 11:26:08;;;;;;;3.65;2.20;;;29.70;10.70;;;;;;5033753;28;20209;-89
2022/07/31 11:28:35;;;;;;;3.42;2.58;;;29.50;12.50;;;;;;5030868;28;20217;-88
2022/07/31 11:31:04;;;;;;;2.33;2.10;;;29.60;10.80;;;;;;5034441;28;20206;-87
2022/07/31 11:33:36;;;;;;;3.58;2.38;;;29.10;11.40;;;;;;5033683;28;20225;-90
2022/07/31 11:36:11;;;;;;;5.10;2.45;;;29.10;11.40;;;;;;5030908;28;20217;-88
2022/07/31 11:38:40;;;;;;;7.68;6.20;;;28.90;12.90;;;;;;5032910;28;20767;-89
2022/07/31 11:41:10;;;;;;;2.67;2.47;;;28.60;11.20;;;;;;5039034;28;20209;-88
2022/07/31 11:43:42;;;;;;;3.83;2.10;;;28.30;13.00;;;;;;5037152;28;20650;-88
2022/07/31 11:46:09;;;;;;;3.88;2.00;;;28.30;12.90;;;;;;5039422;28;20233;-87
2022/07/31 11:48:40;;;;;;;3.10;2.65;;;28.70;12.60;;;;;;5036702;28;20296;-87
2022/07/31 11:51:07;;;;;;;2.90;2.30;;;29.10;12.30;;;;;;5037074;28;20202;-88
2022/07/31 11:53:41;;;;;;;2.97;1.90;;;29.60;11.00;;;;;;5035612;28;20202;-88
2022/07/31 11:56:09;;;;;;;3.70;2.25;;;29.40;11.20;;;;;;5028413;28;20210;-90
2022/07/31 11:58:37;;;;;;;2.45;2.25;;;29.10;12.00;;;;;;5040989;28;20230;-88
2022/07/31 12:01:05;;;;;;;3.10;2.80;;;29.00;10.20;;;;;;5034572;28;20230;-88
2022/07/31 12:03:35;;;;;;;3.20;2.05;;;28.90;11.30;;;;;;5034835;28;20277;-88
2022/07/31 12:06:03;;;;;;;2.53;2.05;;;29.00;13.50;;;;;;5037331;28;20205;-89
2022/07/31 12:08:30;;;;;;;5.18;2.08;;;28.70;10.70;;;;;;5037667;28;20206;-88
2022/07/31 12:11:00;;;;;;;2.10;1.90;;;28.50;11.50;;;;;;5031897;28;20570;-88
2022/07/31 12:13:30;;;;;;;3.22;1.98;;;28.30;12.40;;;;;;5040228;28;20216;-89
2022/07/31 12:15:59;;;;;;;6.28;2.60;;;28.10;13.10;;;;;;5035545;28;20506;-89
2022/07/31 12:18:29;;;;;;;2.60;2.08;;;28.10;12.80;;;;;;5042641;28;20213;-89
2022/07/31 12:21:00;;;;;;;3.08;2.78;;;28.30;12.60;;;;;;5049002;28;20205;-90
2022/07/31 12:23:38;;;;;;;2.92;2.13;;;28.20;12.90;;;;;;5039306;28;20206;-90
2022/07/31 12:26:05;;;;;;;3.65;2.45;;;28.40;14.70;;;;;;5037160;28;20202;-89
2022/07/31 12:28:34;;;;;;;2.75;2.03;;;28.50;13.40;;;;;;5031903;28;20214;-89
2022/07/31 12:31:02;;;;;;;4.03;2.42;;;28.60;12.80;;;;;;5040756;28;20216;-91
2022/07/31 12:33:41;;;;;;;2.78;2.40;;;28.70;12.50;;;;;;5037451;28;20316;-84
2022/07/31 12:36:13;;;;;;;3.50;2.10;;;28.70;12.40;;;;;;5037838;28;20210;-88
2022/07/31 12:38:43;;;;;;;3.45;2.10;;;28.50;13.10;;;;;;5042471;28;20288;-87
2022/07/31 12:41:10;;;;;;;2.40;2.20;;;28.10;14.00;;;;;;5044356;28;20206;-88
2022/07/31 12:43:38;;;;;;;2.78;2.13;;;27.90;15.60;;;;;;5039461;28;20206;-87
2022/07/31 12:46:05;;;;;;;3.22;2.20;;;28.20;15.50;;;;;;5037471;28;20202;-88
2022/07/31 12:48:32;;;;;;;2.97;2.15;;;28.50;12.20;;;;;;5038885;28;20742;-87
2022/07/31 12:50:59;;;;;;;2.70;1.98;;;28.50;11.70;;;;;;5039814;28;20198;-87
2022/07/31 12:53:29;;;;;;;3.35;2.05;;;28.40;12.50;;;;;;5038726;28;20214;-88
2022/07/31 12:55:56;;;;;;;3.08;1.88;;;28.00;14.00;;;;;;5043789;28;20198;-87
2022/07/31 12:58:23;;;;;;;2.20;2.00;;;28.00;15.60;;;;;;5043010;28;20208;-87
2022/07/31 13:00:53;;;;;;;2.20;2.00;;;28.20;13.50;;;;;;5039939;28;20206;-87
2022/07/31 13:03:20;;;;;;;4.10;2.20;;;28.20;14.00;;;;;;5038777;28;20668;-87
2022/07/31 13:05:47;;;;;;;2.20;1.90;;;28.40;14.30;;;;;;5040896;28;20209;-87
2022/07/31 13:08:15;;;;;;;4.60;2.60;;;28.50;13.50;;;;;;5037434;28;20202;-87
2022/07/31 13:10:42;;;;;;;2.47;2.28;;;28.70;12.20;;;;;;5034005;28;20216;-88
2022/07/31 13:13:08;;;;;;;2.95;1.90;;;28.50;14.00;;;;;;5037991;28;20206;-86
2022/07/31 13:15:35;;;;;;;2.25;2.05;;;28.50;12.20;;;;;;5036588;28;20205;-86
2022/07/31 13:18:04;;;;;;;2.45;2.03;;;28.30;13.10;;;;;;5035281;28;20222;-88
2022/07/31 13:20:31;;;;;;;4.97;2.22;;;28.50;13.80;;;;;;5037882;28;20233;-87
2022/07/31 13:23:00;;;;;;;2.25;2.05;;;28.40;15.60;;;;;;5033513;28;20289;-84
2022/07/31 13:25:29;;;;;;;3.70;2.05;;;28.20;15.10;;;;;;5027289;28;20221;-82